Latest Weather Observations for Amberley

IDQ60801

Issued at 9:35 pm EST Friday 28 November 2014 (issued every 30 minutes, with the page automatically refreshed every 10 minutes)

About weather observations | Map of weather stations | Latest weather observations for QLD | Other Formats
Station Details ID: 040004 Name: AMBERLEY AMO Lat: -27.63 Lon: 152.71 Height: 24.2 m
Data from the previous 72 hours. | See also: Recent months at Amberley
Date/Time
EST
Temp
°C
App
Temp
°C
Dew
Point
Rel
Hum
%
Delta-T
°C
Wind Press
QNH
hPa
Press
MSL
hPa
Rain
since 9 am
mm
Dir
 
Spd
km/h
Gust
km/h
Spd
kts
Gust
kts
28/09:30pm 20.4 21.5 15.5 73 2.9 SE 4 7 2 4 1019.9 - 0.0
28/09:00pm 21.0 21.1 15.6 71 3.2 E 9 11 5 6 1019.5 1019.4 0.0
28/08:30pm 21.1 20.4 15.5 70 3.3 E 13 17 7 9 1019.3 - 0.0
28/08:00pm 21.8 21.0 15.2 66 3.9 E 13 20 7 11 1019.4 - 0.0
28/07:30pm 22.4 20.4 15.0 63 4.4 E 19 28 10 15 1019.1 - 0.0
28/07:00pm 22.6 20.4 14.8 61 4.6 E 20 32 11 17 1018.6 - 0.0
28/06:30pm 23.1 19.8 14.0 56 5.3 E 24 33 13 18 1018.4 - 0.0
28/06:00pm 24.0 20.7 12.9 50 6.4 E 22 32 12 17 1018.2 1018.1 0.0
28/05:30pm 24.1 20.4 13.9 53 6.0 E 26 35 14 19 1017.8 - 0.0
28/05:00pm 24.5 20.9 14.2 52 6.1 E 26 35 14 19 1017.6 - 0.0
28/04:30pm 24.7 21.0 14.0 51 6.3 E 26 33 14 18 1017.5 - 0.0
28/04:00pm 25.5 22.2 14.0 49 6.8 E 24 32 13 17 1017.2 - 0.0
28/03:30pm 25.6 21.3 14.5 50 6.6 ESE 30 39 16 21 1017.5 - 0.0
28/03:00pm 24.7 22.7 15.6 57 5.5 ESE 20 32 11 17 1017.5 1017.4 0.0
28/02:30pm 25.9 22.8 15.7 53 6.2 ESE 26 33 14 18 1017.6 - 0.0
28/02:00pm 26.0 23.8 16.0 54 6.1 ESE 22 35 12 19 1017.7 - 0.0
28/01:30pm 25.2 22.7 16.2 57 5.5 ESE 24 33 13 18 1018.1 - 0.0
28/01:00pm 23.2 20.1 17.4 70 3.6 SE 30 39 16 21 1018.3 - 0.0
28/12:30pm 26.4 23.0 15.9 52 6.4 SE 28 37 15 20 1018.1 - 0.0
28/12:00pm 26.9 23.2 16.0 51 6.7 E 30 39 16 21 1018.5 1018.4 0.0
28/11:30am 25.2 23.5 18.0 64 4.5 E 24 32 13 17 1018.9 - 0.0
28/11:00am 24.4 22.3 17.1 63 4.5 ESE 24 35 13 19 1019.2 - 0.0
28/10:30am 26.0 22.8 17.3 58 5.4 SE 30 39 16 21 1019.0 - 0.0
28/10:00am 25.5 23.4 17.1 59 5.2 ESE 24 35 13 19 1018.8 - 0.0
28/09:30am 26.2 24.0 16.8 56 5.8 ESE 24 33 13 18 1018.8 - 0.0
28/09:00am 24.8 23.4 17.0 62 4.8 E 20 28 11 15 1018.6 1018.5 0.8
28/08:30am 24.7 23.5 17.6 64 4.4 SE 20 30 11 16 1018.9 - 0.8
28/08:00am 23.8 23.7 17.9 69 3.7 SSE 15 19 8 10 1018.9 - 0.8
28/07:30am 23.1 23.7 17.6 71 3.4 S 11 15 6 8 1019.0 - 0.8
28/07:00am 22.6 23.1 18.3 76 2.7 S 13 17 7 9 1018.8 - 0.6
28/06:30am 21.8 22.1 17.8 78 2.5 S 13 17 7 9 1018.5 - 0.6
28/06:00am 21.5 23.1 18.3 82 2.0 SSW 7 9 4 5 1018.0 1017.9 0.6
28/05:30am 21.1 23.0 18.5 85 1.6 S 6 9 3 5 1017.9 - 0.6
28/05:00am 20.2 23.3 18.6 90 1.0 CALM 0 0 0 0 1017.6 - 0.6
28/04:30am 20.4 23.7 19.1 92 0.8 CALM 0 0 0 0 1017.4 - 0.6
28/04:00am 20.8 24.1 19.1 90 1.1 CALM 0 2 0 1 1017.0 - 0.6
28/03:30am 20.8 24.0 18.9 89 1.2 CALM 0 0 0 0 1016.7 - 0.6
28/03:00am 21.0 23.9 19.1 89 1.2 SE 2 7 1 4 1016.6 1016.5 0.6
28/02:30am 21.0 23.1 19.3 90 1.1 SSE 7 9 4 5 1016.5 - 0.6
28/02:00am 21.1 22.8 19.4 90 1.1 SSE 9 9 5 5 1016.5 - 0.6
28/01:30am 21.1 22.4 19.2 89 1.2 S 11 11 6 6 1016.8 - 0.6
28/01:00am 20.9 22.6 19.3 90 1.0 SW 9 11 5 6 1016.8 - 0.6
28/12:30am 21.2 22.6 19.6 90 1.0 SW 11 13 6 7 1017.0 - 0.6
28/12:00am 21.7 23.5 20.3 92 0.9 SW 11 13 6 7 1017.1 1017.0 0.6
 
Date/Time
EST
Temp
°C
App
Temp
°C
Dew
Point
Rel
Hum
%
Delta-T
°C
Wind Press
QNH
hPa
Press
MSL
hPa
Rain
since 9 am
mm
Dir
 
Spd
km/h
Gust
km/h
Spd
kts
Gust
kts
27/11:30pm 21.8 24.0 20.4 92 0.9 SW 9 9 5 5 1017.5 - 0.6
27/11:00pm 21.9 24.4 20.3 91 1.0 SW 7 9 4 5 1017.5 - 0.6
27/10:30pm 21.9 25.2 20.7 93 0.8 WSW 4 9 2 5 1017.6 - 0.6
27/10:00pm 21.9 25.6 20.8 93 0.7 W 2 7 1 4 1017.8 - 0.6
27/09:30pm 21.9 25.2 20.7 93 0.8 SW 4 7 2 4 1017.6 - 0.6
27/09:00pm 21.8 24.5 20.7 93 0.7 SW 7 9 4 5 1017.2 1017.1 0.6
27/08:30pm 22.1 24.4 20.7 92 0.9 SW 9 11 5 6 1017.1 - 0.6
27/08:00pm 22.1 23.7 20.7 92 0.9 SSW 13 17 7 9 1016.8 - 0.6
27/07:30pm 22.0 23.2 20.6 92 0.9 E 15 19 8 10 1016.5 - 0.6
27/07:00pm 22.1 23.4 20.1 88 1.3 SE 13 19 7 10 1016.9 - 0.4
27/06:30pm 22.0 22.6 20.3 90 1.1 S 17 19 9 10 1016.5 - 0.4
27/06:13pm 22.0 22.6 20.3 90 1.1 S 17 24 9 13 1016.5 - 0.4
27/06:00pm 22.1 22.1 20.2 89 1.2 SW 20 32 11 17 1016.7 1016.6 0.4
27/05:55pm 22.0 21.0 19.6 86 1.5 SW 24 28 13 15 1016.7 - 0.4
27/05:50pm 22.3 24.0 20.1 87 1.4 SSE 11 22 6 12 1016.1 - 0.4
27/05:30pm 21.4 22.4 19.4 88 1.3 ENE 13 17 7 9 1015.0 - 0.4
27/05:10pm 20.9 20.0 19.0 89 1.2 NE 22 28 12 15 1014.6 - 0.2
27/05:00pm 21.3 20.3 19.6 90 1.1 E 24 33 13 18 1014.2 - 0.2
27/04:50pm 21.1 18.9 18.7 86 1.5 E 28 37 15 20 1013.9 - 0.0
27/04:30pm 22.4 14.9 15.9 66 3.9 ESE 50 76 27 41 1013.6 - 0.0
27/04:21pm 24.4 14.6 13.4 50 6.4 SE 57 76 31 41 1013.2 - 0.0
27/04:19pm 24.8 15.3 13.5 49 6.6 SE 56 72 30 39 1013.0 - 0.0
27/04:11pm 29.8 23.7 16.1 43 8.5 ESE 43 70 23 38 1012.5 - 0.0
27/04:10pm 30.7 26.0 16.9 43 8.7 ESE 37 46 20 25 1012.3 - 0.0
27/04:00pm 31.4 27.0 16.7 41 9.3 ENE 35 44 19 24 1011.3 - 0.0
27/03:51pm 32.8 29.7 16.5 37 10.3 ENE 28 43 15 23 1011.0 - 0.0
27/03:30pm 33.6 31.9 12.5 27 12.6 SSE 13 19 7 10 1010.8 - 0.0
27/03:00pm 34.1 32.8 12.6 27 12.9 ESE 11 17 6 9 1010.6 1010.5 0.0
27/02:30pm 33.4 33.0 14.1 31 11.8 SE 9 17 5 9 1011.4 - 0.0
27/02:00pm 33.7 32.1 13.9 30 12.1 S 15 22 8 12 1012.2 - 0.0
27/01:30pm 33.5 31.1 14.3 31 11.8 S 20 28 11 15 1012.7 - 0.0
27/01:00pm 33.2 31.6 15.1 33 11.2 SSE 17 26 9 14 1013.2 - 0.0
27/12:30pm 32.0 31.6 15.2 36 10.4 ESE 11 17 6 9 1013.5 - 0.0
27/12:00pm 31.5 31.5 15.3 37 10.0 W 9 15 5 8 1014.0 1013.9 0.0
27/11:30am 30.6 31.9 16.2 41 9.0 SSW 4 13 2 7 1014.4 - 0.0
27/11:00am 31.2 30.8 15.1 37 9.9 WSW 11 32 6 17 1014.9 - 0.0
27/10:30am 30.3 31.6 17.2 45 8.3 N 6 11 3 6 1015.4 - 0.0
27/10:00am 28.2 27.9 17.4 52 6.8 SW 15 19 8 10 1015.8 - 0.0
27/09:30am 28.9 29.4 17.5 50 7.2 WNW 11 19 6 10 1016.0 - 0.0
27/09:00am 27.8 29.3 18.0 55 6.2 SW 7 13 4 7 1016.3 1016.2 0.0
27/08:30am 26.1 26.8 18.0 61 5.1 SW 11 17 6 9 1016.6 - 0.0
27/08:00am 25.8 27.4 18.2 63 4.8 W 7 11 4 6 1016.8 - 0.0
27/07:30am 24.6 26.7 18.9 70 3.6 WNW 6 11 3 6 1016.8 - 0.0
27/07:00am 24.0 26.2 19.1 74 3.1 SSW 6 9 3 5 1016.7 - 0.0
27/06:30am 22.8 25.2 18.7 77 2.6 SSW 4 9 2 5 1016.4 - 0.0
27/06:00am 21.4 24.0 19.2 87 1.4 SSW 4 7 2 4 1016.2 1016.1 0.0
27/05:30am 20.3 23.6 19.0 92 0.8 CALM 0 0 0 0 1015.9 - 0.0
27/05:00am 19.5 22.4 18.2 92 0.8 CALM 0 0 0 0 1015.8 - 0.0
27/04:30am 20.2 23.2 18.4 89 1.1 CALM 0 0 0 0 1015.5 - 0.0
27/04:00am 20.4 23.5 18.6 89 1.1 CALM 0 2 0 1 1015.4 - 0.0
27/03:30am 20.4 23.4 18.5 89 1.2 CALM 0 0 0 0 1015.1 - 0.0
27/03:00am 20.8 23.9 18.7 88 1.3 CALM 0 0 0 0 1015.0 1014.9 0.0
27/02:30am 21.4 24.5 18.7 84 1.7 CALM 0 0 0 0 1015.1 - 0.0
27/02:00am 21.7 23.7 18.7 83 1.9 SSW 6 11 3 6 1015.3 - 0.0
27/01:30am 21.9 22.1 18.6 81 2.1 SW 15 20 8 11 1015.3 - 0.0
27/01:00am 21.8 22.0 18.6 82 2.0 S 15 19 8 10 1015.4 - 0.0
27/12:30am 21.8 22.5 18.8 83 1.9 SSW 13 17 7 9 1015.7 - 0.0
27/12:00am 22.2 22.8 19.5 85 1.7 S 15 19 8 10 1016.0 1015.9 0.0
 
Date/Time
EST
Temp
°C
App
Temp
°C
Dew
Point
Rel
Hum
%
Delta-T
°C
Wind Press
QNH
hPa
Press
MSL
hPa
Rain
since 9 am
mm
Dir
 
Spd
km/h
Gust
km/h
Spd
kts
Gust
kts
26/11:30pm 22.2 23.8 19.2 83 1.9 SSE 9 13 5 7 1016.1 - 0.0
26/11:00pm 22.5 23.5 19.4 82 2.0 SW 13 17 7 9 1016.4 - 0.0
26/10:30pm 22.5 23.8 19.4 82 2.0 W 11 13 6 7 1016.5 - 0.0
26/10:00pm 24.2 27.2 18.5 70 3.6 CALM 0 0 0 0 1016.6 - 0.0
26/09:30pm 23.9 24.8 18.3 71 3.5 NE 11 13 6 7 1016.6 - 0.0
26/09:00pm 23.4 23.8 18.1 72 3.3 E 13 17 7 9 1016.8 1016.7 0.0
26/08:30pm 22.7 22.5 18.6 77 2.6 SE 17 22 9 12 1017.3 - 0.0
26/08:00pm 22.5 21.3 18.3 77 2.6 S 22 30 12 16 1017.4 - 0.0
26/07:30pm 24.2 23.7 15.8 59 5.1 SW 13 17 7 9 1017.1 - 0.0
26/07:00pm 25.3 25.6 15.9 56 5.7 W 9 17 5 9 1017.2 - 0.0
26/06:30pm 26.0 26.1 17.4 59 5.4 NNE 13 19 7 10 1016.6 - 0.0
26/06:00pm 26.2 24.0 17.8 60 5.3 ENE 26 32 14 17 1015.9 1015.8 0.0
26/05:30pm 26.5 25.3 18.3 60 5.2 NE 22 32 12 17 1015.3 - 0.0
26/05:00pm 27.0 25.3 18.2 58 5.6 ENE 24 32 13 17 1014.7 - 0.0
26/04:30pm 27.8 26.1 18.0 55 6.2 ENE 24 33 13 18 1014.2 - 0.0
26/04:00pm 28.9 27.4 17.7 50 7.1 ENE 22 30 12 16 1014.0 - 0.0
26/03:30pm 29.6 27.2 17.3 47 7.8 E 26 35 14 19 1013.7 - 0.0
26/03:00pm 30.3 28.9 17.0 44 8.4 E 20 28 11 15 1013.8 1013.7 0.0
26/02:30pm 30.8 29.4 17.0 43 8.7 ENE 20 30 11 16 1013.9 - 0.0
26/02:00pm 30.0 27.3 16.6 44 8.4 E 26 33 14 18 1014.2 - 0.0
26/01:30pm 30.4 28.9 16.7 43 8.6 E 20 30 11 16 1014.3 - 0.0
26/01:00pm 29.8 28.5 16.7 45 8.2 ENE 19 28 10 15 1014.4 - 0.0
26/12:30pm 30.4 29.1 17.3 45 8.3 E 20 33 11 18 1015.0 - 0.0
26/12:00pm 30.3 30.3 17.2 45 8.3 NE 13 22 7 12 1015.4 1015.3 0.0
26/11:30am 30.4 29.1 16.9 44 8.5 E 19 28 10 15 1015.9 - 0.0
26/11:00am 28.5 27.4 17.4 51 7.0 NE 19 26 10 14 1016.0 - 0.0
26/10:30am 29.2 29.7 18.4 52 6.9 ESE 13 24 7 13 1016.2 - 0.0
26/10:00am 28.0 28.1 19.9 61 5.3 ESE 19 30 10 16 1016.5 - 0.0
26/09:30am 28.5 30.0 19.8 59 5.7 ESE 11 17 6 9 1016.7 - 0.0
26/09:00am 26.7 28.0 20.1 67 4.3 SE 13 19 7 10 1016.8 1016.7 0.4
26/08:30am 26.0 27.2 20.7 72 3.5 SSE 15 19 8 10 1017.0 - 0.4
26/08:00am 24.3 26.1 21.1 82 2.1 SSE 13 17 7 9 1017.2 - 0.4
26/07:30am 23.1 25.4 21.3 90 1.2 SSE 11 15 6 8 1017.0 - 0.2
26/07:11am 22.7 25.3 21.2 91 1.0 S 9 11 5 6 1017.2 - 0.2
26/07:00am 22.7 25.1 21.5 93 0.8 S 11 19 6 10 1017.0 - 0.2
26/06:53am 22.7 24.9 21.8 95 0.6 S 13 19 7 10 1016.9 - 0.2
26/06:35am 22.5 24.8 21.4 93 0.7 SSE 11 15 6 8 1016.9 - 0.0
26/06:30am 22.7 25.0 21.3 92 0.9 S 11 15 6 8 1016.9 - 0.0
26/06:00am 22.8 25.3 21.0 89 1.2 S 9 11 5 6 1016.5 1016.4 0.0
26/05:30am 22.5 24.8 20.7 89 1.2 SSW 9 11 5 6 1016.1 - 0.0
26/05:00am 22.6 25.0 20.1 86 1.6 SSW 7 9 4 5 1015.7 - 0.0
26/04:30am 22.7 24.8 20.1 85 1.7 SSW 9 9 5 5 1015.5 - 0.0
26/04:00am 23.0 24.9 19.7 82 2.1 SSW 9 11 5 6 1015.2 - 0.0
26/03:50am 23.0 25.0 19.9 83 2.0 SSW 9 13 5 7 1015.1 - 0.0
26/03:30am 23.6 25.5 19.0 75 2.9 SSW 7 9 4 5 1014.9 - 0.0
26/03:00am 23.6 25.5 19.0 75 2.9 S 7 9 4 5 1015.0 1014.9 0.0
26/02:37am 24.2 27.0 20.8 81 2.2 ESE 7 9 4 5 1015.0 - 0.0
26/02:30am 24.1 26.9 20.9 82 2.1 ESE 7 9 4 5 1015.0 - 0.0
26/02:00am 24.1 26.5 20.9 82 2.1 SE 9 11 5 6 1015.1 - 0.0
26/01:30am 24.2 26.4 20.5 80 2.4 ENE 9 15 5 8 1015.3 - 0.0
26/01:00am 24.2 26.4 20.4 79 2.5 ENE 9 11 5 6 1015.4 - 0.0
26/12:30am 24.3 25.5 20.0 77 2.8 ESE 13 15 7 8 1015.7 - 0.0
26/12:00am 25.0 26.3 20.1 74 3.2 SE 13 17 7 9 1016.3 1016.2 0.0
 
Date/Time
EST
Temp
°C
App
Temp
°C
Dew
Point
Rel
Hum
%
Delta-T
°C
Wind Press
QNH
hPa
Press
MSL
hPa
Rain
since 9 am
mm
Dir
 
Spd
km/h
Gust
km/h
Spd
kts
Gust
kts
25/11:30pm 25.3 26.5 20.6 75 3.1 SSE 15 19 8 10 1016.9 - 0.0
25/11:00pm 25.4 27.5 21.0 76 2.9 SE 11 17 6 9 1017.5 - 0.0
25/10:30pm 25.6 26.9 20.9 75 3.1 SSE 15 17 8 9 1017.5 - 0.0
25/10:00pm 25.6 26.8 20.7 74 3.2 ESE 15 19 8 10 1017.3 - 0.0

Other Formats:

Comma delimited format used in spreadsheet applications
http://www.bom.gov.au/fwo/IDQ60801/IDQ60801.94568.axf

JavaScript Object Notation format (JSON) in row-major order
http://www.bom.gov.au/fwo/IDQ60801/IDQ60801.94568.json